sensor_id;sensor_type;location;lat;lon;timestamp;P1;durP1;ratioP1;P2;durP2;ratioP2
37311;SDS011;23197;53.912;9.138;2022-10-24T00:02:15;3.90;;;2.33;;
37311;SDS011;23197;53.912;9.138;2022-10-24T00:04:40;5.68;;;2.33;;
37311;SDS011;23197;53.912;9.138;2022-10-24T00:07:06;4.60;;;2.25;;
37311;SDS011;23197;53.912;9.138;2022-10-24T00:09:32;6.25;;;1.80;;
37311;SDS011;23197;53.912;9.138;2022-10-24T00:11:59;3.78;;;1.85;;
37311;SDS011;23197;53.912;9.138;2022-10-24T00:14:24;6.00;;;1.80;;
37311;SDS011;23197;53.912;9.138;2022-10-24T00:16:50;4.78;;;2.00;;
37311;SDS011;23197;53.912;9.138;2022-10-24T00:19:16;7.28;;;2.33;;
37311;SDS011;23197;53.912;9.138;2022-10-24T00:21:41;5.97;;;1.73;;
37311;SDS011;23197;53.912;9.138;2022-10-24T00:24:07;3.75;;;1.80;;
37311;SDS011;23197;53.912;9.138;2022-10-24T00:26:33;7.22;;;2.10;;
37311;SDS011;23197;53.912;9.138;2022-10-24T00:28:59;4.97;;;2.17;;
37311;SDS011;23197;53.912;9.138;2022-10-24T00:31:25;5.43;;;1.80;;
37311;SDS011;23197;53.912;9.138;2022-10-24T00:33:51;4.90;;;1.75;;
37311;SDS011;23197;53.912;9.138;2022-10-24T00:36:18;4.03;;;1.90;;
37311;SDS011;23197;53.912;9.138;2022-10-24T00:38:45;3.20;;;1.52;;
37311;SDS011;23197;53.912;9.138;2022-10-24T00:41:19;3.22;;;1.77;;
37311;SDS011;23197;53.912;9.138;2022-10-24T00:43:47;2.80;;;1.42;;
37311;SDS011;23197;53.912;9.138;2022-10-24T00:46:13;4.80;;;1.70;;
37311;SDS011;23197;53.912;9.138;2022-10-24T00:48:41;5.93;;;1.98;;
37311;SDS011;23197;53.912;9.138;2022-10-24T00:53:37;4.85;;;1.73;;
37311;SDS011;23197;53.912;9.138;2022-10-24T00:56:08;4.50;;;1.80;;
37311;SDS011;23197;53.912;9.138;2022-10-24T00:58:37;5.10;;;1.95;;
37311;SDS011;23197;53.912;9.138;2022-10-24T01:01:04;5.45;;;1.90;;
37311;SDS011;23197;53.912;9.138;2022-10-24T01:03:30;5.75;;;2.10;;
37311;SDS011;23197;53.912;9.138;2022-10-24T01:17:08;5.57;;;1.85;;
37311;SDS011;23197;53.912;9.138;2022-10-24T01:19:48;6.45;;;1.83;;
37311;SDS011;23197;53.912;9.138;2022-10-24T01:22:26;3.85;;;1.70;;
37311;SDS011;23197;53.912;9.138;2022-10-24T01:25:31;3.67;;;1.60;;
37311;SDS011;23197;53.912;9.138;2022-10-24T01:28:00;5.15;;;1.95;;
37311;SDS011;23197;53.912;9.138;2022-10-24T01:30:37;5.03;;;2.03;;
37311;SDS011;23197;53.912;9.138;2022-10-24T01:35:42;4.57;;;1.90;;
37311;SDS011;23197;53.912;9.138;2022-10-24T01:38:16;4.07;;;1.63;;
37311;SDS011;23197;53.912;9.138;2022-10-24T01:43:50;7.30;;;2.30;;
37311;SDS011;23197;53.912;9.138;2022-10-24T01:46:22;3.40;;;1.70;;
37311;SDS011;23197;53.912;9.138;2022-10-24T01:48:56;6.15;;;2.22;;
37311;SDS011;23197;53.912;9.138;2022-10-24T01:51:26;9.18;;;2.03;;
37311;SDS011;23197;53.912;9.138;2022-10-24T01:53:54;5.47;;;2.33;;
37311;SDS011;23197;53.912;9.138;2022-10-24T01:56:22;5.00;;;2.25;;
37311;SDS011;23197;53.912;9.138;2022-10-24T01:58:49;8.65;;;2.05;;
37311;SDS011;23197;53.912;9.138;2022-10-24T02:01:15;3.63;;;1.90;;
37311;SDS011;23197;53.912;9.138;2022-10-24T02:03:56;3.50;;;1.70;;
37311;SDS011;23197;53.912;9.138;2022-10-24T02:06:27;6.22;;;1.98;;
37311;SDS011;23197;53.912;9.138;2022-10-24T02:09:00;6.60;;;2.08;;
37311;SDS011;23197;53.912;9.138;2022-10-24T02:11:30;4.13;;;1.88;;
37311;SDS011;23197;53.912;9.138;2022-10-24T02:14:02;5.65;;;2.40;;
37311;SDS011;23197;53.912;9.138;2022-10-24T02:16:32;4.93;;;2.20;;
37311;SDS011;23197;53.912;9.138;2022-10-24T02:18:59;5.65;;;2.47;;
37311;SDS011;23197;53.912;9.138;2022-10-24T02:24:24;5.00;;;2.40;;
37311;SDS011;23197;53.912;9.138;2022-10-24T02:29:28;6.35;;;2.38;;
37311;SDS011;23197;53.912;9.138;2022-10-24T02:34:29;6.63;;;2.45;;
37311;SDS011;23197;53.912;9.138;2022-10-24T02:36:58;4.25;;;2.28;;
37311;SDS011;23197;53.912;9.138;2022-10-24T02:39:25;6.28;;;2.55;;
37311;SDS011;23197;53.912;9.138;2022-10-24T02:41:54;6.28;;;2.80;;
37311;SDS011;23197;53.912;9.138;2022-10-24T02:44:21;5.57;;;2.70;;
37311;SDS011;23197;53.912;9.138;2022-10-24T02:46:49;6.43;;;3.10;;
37311;SDS011;23197;53.912;9.138;2022-10-24T02:49:18;8.52;;;3.30;;
37311;SDS011;23197;53.912;9.138;2022-10-24T02:51:44;12.90;;;4.10;;
37311;SDS011;23197;53.912;9.138;2022-10-24T02:54:11;6.60;;;3.90;;
37311;SDS011;23197;53.912;9.138;2022-10-24T02:56:38;7.90;;;4.30;;
37311;SDS011;23197;53.912;9.138;2022-10-24T02:59:07;6.60;;;3.72;;
37311;SDS011;23197;53.912;9.138;2022-10-24T03:01:32;7.60;;;3.42;;
37311;SDS011;23197;53.912;9.138;2022-10-24T03:03:58;4.43;;;2.90;;
37311;SDS011;23197;53.912;9.138;2022-10-24T03:06:23;7.32;;;2.92;;
37311;SDS011;23197;53.912;9.138;2022-10-24T03:08:49;7.22;;;2.60;;
37311;SDS011;23197;53.912;9.138;2022-10-24T03:11:14;5.43;;;2.53;;
37311;SDS011;23197;53.912;9.138;2022-10-24T03:13:40;6.68;;;2.72;;
37311;SDS011;23197;53.912;9.138;2022-10-24T03:16:05;6.13;;;2.58;;
37311;SDS011;23197;53.912;9.138;2022-10-24T03:18:31;6.57;;;2.58;;
37311;SDS011;23197;53.912;9.138;2022-10-24T03:20:56;8.70;;;3.10;;
37311;SDS011;23197;53.912;9.138;2022-10-24T03:23:22;7.28;;;2.50;;
37311;SDS011;23197;53.912;9.138;2022-10-24T03:25:49;5.95;;;2.53;;
37311;SDS011;23197;53.912;9.138;2022-10-24T03:28:14;6.50;;;2.47;;
37311;SDS011;23197;53.912;9.138;2022-10-24T03:30:40;6.10;;;2.50;;
37311;SDS011;23197;53.912;9.138;2022-10-24T03:33:06;5.85;;;2.65;;
37311;SDS011;23197;53.912;9.138;2022-10-24T03:35:31;6.15;;;2.50;;
37311;SDS011;23197;53.912;9.138;2022-10-24T03:37:56;6.40;;;3.00;;
37311;SDS011;23197;53.912;9.138;2022-10-24T03:40:22;7.90;;;2.80;;
37311;SDS011;23197;53.912;9.138;2022-10-24T03:42:47;6.50;;;2.38;;
37311;SDS011;23197;53.912;9.138;2022-10-24T03:45:13;6.07;;;2.80;;
37311;SDS011;23197;53.912;9.138;2022-10-24T03:47:39;7.28;;;2.78;;
37311;SDS011;23197;53.912;9.138;2022-10-24T03:50:05;7.65;;;3.08;;
37311;SDS011;23197;53.912;9.138;2022-10-24T03:52:31;8.80;;;3.20;;
37311;SDS011;23197;53.912;9.138;2022-10-24T03:54:57;7.38;;;4.47;;
37311;SDS011;23197;53.912;9.138;2022-10-24T03:57:22;12.38;;;4.90;;
37311;SDS011;23197;53.912;9.138;2022-10-24T03:59:47;8.68;;;4.70;;
37311;SDS011;23197;53.912;9.138;2022-10-24T04:02:13;9.30;;;4.60;;
37311;SDS011;23197;53.912;9.138;2022-10-24T04:04:38;8.05;;;3.90;;
37311;SDS011;23197;53.912;9.138;2022-10-24T04:07:04;7.20;;;4.03;;
37311;SDS011;23197;53.912;9.138;2022-10-24T04:09:30;12.70;;;4.30;;
37311;SDS011;23197;53.912;9.138;2022-10-24T04:11:55;7.78;;;4.03;;
37311;SDS011;23197;53.912;9.138;2022-10-24T04:14:21;8.98;;;4.45;;
37311;SDS011;23197;53.912;9.138;2022-10-24T04:16:46;11.13;;;4.55;;
37311;SDS011;23197;53.912;9.138;2022-10-24T04:19:12;8.05;;;4.00;;
37311;SDS011;23197;53.912;9.138;2022-10-24T04:21:38;8.88;;;3.83;;
37311;SDS011;23197;53.912;9.138;2022-10-24T04:24:03;8.77;;;3.58;;
37311;SDS011;23197;53.912;9.138;2022-10-24T04:26:29;7.32;;;3.70;;
37311;SDS011;23197;53.912;9.138;2022-10-24T04:28:54;7.95;;;3.67;;
37311;SDS011;23197;53.912;9.138;2022-10-24T04:31:20;8.85;;;3.47;;
37311;SDS011;23197;53.912;9.138;2022-10-24T04:33:45;9.98;;;3.30;;
37311;SDS011;23197;53.912;9.138;2022-10-24T04:36:11;7.80;;;3.40;;
37311;SDS011;23197;53.912;9.138;2022-10-24T04:38:36;7.15;;;2.47;;
37311;SDS011;23197;53.912;9.138;2022-10-24T04:41:02;6.00;;;2.80;;
37311;SDS011;23197;53.912;9.138;2022-10-24T04:43:27;9.10;;;3.35;;
37311;SDS011;23197;53.912;9.138;2022-10-24T04:45:53;6.97;;;2.63;;
37311;SDS011;23197;53.912;9.138;2022-10-24T04:48:18;5.93;;;3.13;;
37311;SDS011;23197;53.912;9.138;2022-10-24T04:50:44;7.03;;;2.97;;
37311;SDS011;23197;53.912;9.138;2022-10-24T04:53:11;7.07;;;2.67;;
37311;SDS011;23197;53.912;9.138;2022-10-24T04:55:36;5.70;;;2.92;;
37311;SDS011;23197;53.912;9.138;2022-10-24T04:58:03;7.00;;;2.72;;
37311;SDS011;23197;53.912;9.138;2022-10-24T05:00:28;7.53;;;3.00;;
37311;SDS011;23197;53.912;9.138;2022-10-24T05:02:54;6.07;;;2.80;;
37311;SDS011;23197;53.912;9.138;2022-10-24T05:05:20;8.23;;;2.53;;
37311;SDS011;23197;53.912;9.138;2022-10-24T05:07:47;7.43;;;2.85;;
37311;SDS011;23197;53.912;9.138;2022-10-24T05:10:13;6.25;;;2.65;;
37311;SDS011;23197;53.912;9.138;2022-10-24T05:12:39;7.15;;;2.50;;
37311;SDS011;23197;53.912;9.138;2022-10-24T05:15:05;5.40;;;2.42;;
37311;SDS011;23197;53.912;9.138;2022-10-24T05:17:32;7.32;;;2.97;;
37311;SDS011;23197;53.912;9.138;2022-10-24T05:19:57;8.80;;;2.75;;
37311;SDS011;23197;53.912;9.138;2022-10-24T05:22:23;8.57;;;2.60;;
37311;SDS011;23197;53.912;9.138;2022-10-24T05:24:48;7.03;;;2.90;;
37311;SDS011;23197;53.912;9.138;2022-10-24T05:27:15;6.35;;;2.78;;
37311;SDS011;23197;53.912;9.138;2022-10-24T05:29:40;6.47;;;2.33;;
37311;SDS011;23197;53.912;9.138;2022-10-24T05:32:06;10.27;;;2.80;;
37311;SDS011;23197;53.912;9.138;2022-10-24T05:34:32;11.95;;;2.88;;
37311;SDS011;23197;53.912;9.138;2022-10-24T05:36:57;5.93;;;2.63;;
37311;SDS011;23197;53.912;9.138;2022-10-24T05:39:23;5.38;;;2.65;;
37311;SDS011;23197;53.912;9.138;2022-10-24T05:41:48;7.97;;;2.50;;
37311;SDS011;23197;53.912;9.138;2022-10-24T05:44:13;9.02;;;2.22;;
37311;SDS011;23197;53.912;9.138;2022-10-24T05:46:39;11.10;;;2.97;;
37311;SDS011;23197;53.912;9.138;2022-10-24T05:49:05;8.13;;;2.47;;
37311;SDS011;23197;53.912;9.138;2022-10-24T05:51:32;9.57;;;3.03;;
37311;SDS011;23197;53.912;9.138;2022-10-24T05:53:57;7.45;;;2.90;;
37311;SDS011;23197;53.912;9.138;2022-10-24T05:56:23;5.97;;;2.75;;
37311;SDS011;23197;53.912;9.138;2022-10-24T05:58:49;5.53;;;2.53;;
37311;SDS011;23197;53.912;9.138;2022-10-24T06:01:15;6.63;;;2.80;;
37311;SDS011;23197;53.912;9.138;2022-10-24T06:03:41;6.15;;;2.38;;
37311;SDS011;23197;53.912;9.138;2022-10-24T06:06:07;4.70;;;2.33;;
37311;SDS011;23197;53.912;9.138;2022-10-24T06:08:34;10.60;;;3.45;;
37311;SDS011;23197;53.912;9.138;2022-10-24T06:11:00;10.65;;;2.83;;
37311;SDS011;23197;53.912;9.138;2022-10-24T06:13:26;10.40;;;2.75;;
37311;SDS011;23197;53.912;9.138;2022-10-24T06:15:52;8.77;;;2.60;;
37311;SDS011;23197;53.912;9.138;2022-10-24T06:18:17;8.95;;;2.47;;
37311;SDS011;23197;53.912;9.138;2022-10-24T06:20:43;7.55;;;2.63;;
37311;SDS011;23197;53.912;9.138;2022-10-24T06:23:08;7.13;;;2.60;;
37311;SDS011;23197;53.912;9.138;2022-10-24T06:25:34;9.25;;;2.70;;
37311;SDS011;23197;53.912;9.138;2022-10-24T06:27:59;9.77;;;2.90;;
37311;SDS011;23197;53.912;9.138;2022-10-24T06:30:25;8.48;;;2.72;;
37311;SDS011;23197;53.912;9.138;2022-10-24T06:32:50;6.85;;;2.65;;
37311;SDS011;23197;53.912;9.138;2022-10-24T06:35:16;8.30;;;2.42;;
37311;SDS011;23197;53.912;9.138;2022-10-24T06:37:43;9.55;;;2.80;;
37311;SDS011;23197;53.912;9.138;2022-10-24T06:40:08;6.72;;;2.63;;
37311;SDS011;23197;53.912;9.138;2022-10-24T06:42:34;6.28;;;2.38;;
37311;SDS011;23197;53.912;9.138;2022-10-24T06:44:59;8.02;;;2.70;;
37311;SDS011;23197;53.912;9.138;2022-10-24T06:47:25;9.70;;;2.60;;
37311;SDS011;23197;53.912;9.138;2022-10-24T06:49:50;10.23;;;2.60;;
37311;SDS011;23197;53.912;9.138;2022-10-24T06:52:15;7.80;;;2.63;;
37311;SDS011;23197;53.912;9.138;2022-10-24T06:54:41;12.75;;;2.72;;
37311;SDS011;23197;53.912;9.138;2022-10-24T06:57:07;7.53;;;2.70;;
37311;SDS011;23197;53.912;9.138;2022-10-24T06:59:33;7.07;;;2.55;;
37311;SDS011;23197;53.912;9.138;2022-10-24T07:01:58;6.97;;;2.60;;
37311;SDS011;23197;53.912;9.138;2022-10-24T07:04:24;8.43;;;2.78;;
37311;SDS011;23197;53.912;9.138;2022-10-24T07:06:49;7.28;;;2.42;;
37311;SDS011;23197;53.912;9.138;2022-10-24T07:09:15;6.40;;;2.58;;
37311;SDS011;23197;53.912;9.138;2022-10-24T07:11:41;8.93;;;2.80;;
37311;SDS011;23197;53.912;9.138;2022-10-24T07:14:07;6.32;;;2.53;;
37311;SDS011;23197;53.912;9.138;2022-10-24T07:16:34;6.97;;;2.70;;
37311;SDS011;23197;53.912;9.138;2022-10-24T07:19:00;7.22;;;2.45;;
37311;SDS011;23197;53.912;9.138;2022-10-24T07:21:27;5.18;;;2.10;;
37311;SDS011;23197;53.912;9.138;2022-10-24T07:23:53;6.05;;;2.30;;
37311;SDS011;23197;53.912;9.138;2022-10-24T07:26:20;5.68;;;2.55;;
37311;SDS011;23197;53.912;9.138;2022-10-24T07:28:47;8.73;;;2.67;;
37311;SDS011;23197;53.912;9.138;2022-10-24T07:31:17;6.93;;;2.55;;
37311;SDS011;23197;53.912;9.138;2022-10-24T07:33:45;7.47;;;3.05;;
37311;SDS011;23197;53.912;9.138;2022-10-24T07:36:14;8.70;;;2.80;;
37311;SDS011;23197;53.912;9.138;2022-10-24T07:38:42;8.38;;;3.08;;
37311;SDS011;23197;53.912;9.138;2022-10-24T07:41:07;7.00;;;2.78;;
37311;SDS011;23197;53.912;9.138;2022-10-24T07:43:33;6.07;;;2.40;;
37311;SDS011;23197;53.912;9.138;2022-10-24T07:45:58;7.32;;;2.80;;
37311;SDS011;23197;53.912;9.138;2022-10-24T07:48:23;7.93;;;2.90;;
37311;SDS011;23197;53.912;9.138;2022-10-24T07:50:49;11.05;;;2.50;;
37311;SDS011;23197;53.912;9.138;2022-10-24T07:53:15;7.20;;;2.47;;
37311;SDS011;23197;53.912;9.138;2022-10-24T07:55:41;8.98;;;2.50;;
37311;SDS011;23197;53.912;9.138;2022-10-24T07:58:08;8.00;;;2.88;;
37311;SDS011;23197;53.912;9.138;2022-10-24T08:00:34;8.63;;;2.95;;
37311;SDS011;23197;53.912;9.138;2022-10-24T08:03:00;7.72;;;2.60;;
37311;SDS011;23197;53.912;9.138;2022-10-24T08:05:26;5.15;;;2.42;;
37311;SDS011;23197;53.912;9.138;2022-10-24T08:07:51;6.40;;;2.65;;
37311;SDS011;23197;53.912;9.138;2022-10-24T08:10:17;7.13;;;2.10;;
37311;SDS011;23197;53.912;9.138;2022-10-24T08:12:42;5.80;;;2.42;;
37311;SDS011;23197;53.912;9.138;2022-10-24T08:15:08;5.72;;;2.20;;
37311;SDS011;23197;53.912;9.138;2022-10-24T08:17:34;9.05;;;2.47;;
37311;SDS011;23197;53.912;9.138;2022-10-24T08:20:02;5.35;;;2.05;;
37311;SDS011;23197;53.912;9.138;2022-10-24T08:22:31;7.35;;;2.10;;
37311;SDS011;23197;53.912;9.138;2022-10-24T08:24:58;6.22;;;2.03;;
37311;SDS011;23197;53.912;9.138;2022-10-24T08:27:24;6.03;;;1.95;;
37311;SDS011;23197;53.912;9.138;2022-10-24T08:29:49;5.78;;;2.00;;
37311;SDS011;23197;53.912;9.138;2022-10-24T08:32:15;5.20;;;2.20;;
37311;SDS011;23197;53.912;9.138;2022-10-24T08:34:40;4.25;;;1.77;;
37311;SDS011;23197;53.912;9.138;2022-10-24T08:37:06;5.88;;;1.80;;
37311;SDS011;23197;53.912;9.138;2022-10-24T08:39:31;5.43;;;1.90;;
37311;SDS011;23197;53.912;9.138;2022-10-24T08:41:57;6.13;;;1.90;;
37311;SDS011;23197;53.912;9.138;2022-10-24T08:44:27;5.93;;;2.13;;
37311;SDS011;23197;53.912;9.138;2022-10-24T08:49:42;5.07;;;2.10;;
37311;SDS011;23197;53.912;9.138;2022-10-24T08:54:57;6.05;;;1.98;;
37311;SDS011;23197;53.912;9.138;2022-10-24T08:57:26;6.30;;;2.05;;
37311;SDS011;23197;53.912;9.138;2022-10-24T08:59:56;4.63;;;1.90;;
37311;SDS011;23197;53.912;9.138;2022-10-24T09:02:24;6.45;;;1.80;;
37311;SDS011;23197;53.912;9.138;2022-10-24T09:04:55;5.90;;;1.70;;
37311;SDS011;23197;53.912;9.138;2022-10-24T09:07:24;4.00;;;2.00;;
37311;SDS011;23197;53.912;9.138;2022-10-24T09:09:51;5.25;;;1.90;;
37311;SDS011;23197;53.912;9.138;2022-10-24T09:12:37;5.05;;;1.75;;
37311;SDS011;23197;53.912;9.138;2022-10-24T09:15:07;6.25;;;2.25;;
37311;SDS011;23197;53.912;9.138;2022-10-24T09:17:39;7.35;;;2.00;;
37311;SDS011;23197;53.912;9.138;2022-10-24T09:22:45;6.95;;;2.22;;
37311;SDS011;23197;53.912;9.138;2022-10-24T09:25:14;6.75;;;1.75;;
37311;SDS011;23197;53.912;9.138;2022-10-24T09:27:42;6.95;;;2.05;;
37311;SDS011;23197;53.912;9.138;2022-10-24T09:30:41;7.22;;;1.85;;
37311;SDS011;23197;53.912;9.138;2022-10-24T09:33:03;6.77;;;1.80;;
37311;SDS011;23197;53.912;9.138;2022-10-24T09:35:38;5.70;;;1.80;;
37311;SDS011;23197;53.912;9.138;2022-10-24T09:38:22;5.32;;;1.70;;
37311;SDS011;23197;53.912;9.138;2022-10-24T09:40:52;7.30;;;1.95;;
37311;SDS011;23197;53.912;9.138;2022-10-24T09:43:21;7.63;;;1.90;;
37311;SDS011;23197;53.912;9.138;2022-10-24T09:46:06;6.75;;;1.90;;
37311;SDS011;23197;53.912;9.138;2022-10-24T09:51:06;4.97;;;1.80;;
37311;SDS011;23197;53.912;9.138;2022-10-24T09:53:33;7.07;;;1.70;;
37311;SDS011;23197;53.912;9.138;2022-10-24T09:56:05;6.53;;;1.50;;
37311;SDS011;23197;53.912;9.138;2022-10-24T09:58:36;4.47;;;1.80;;
37311;SDS011;23197;53.912;9.138;2022-10-24T10:01:08;7.70;;;1.73;;
37311;SDS011;23197;53.912;9.138;2022-10-24T10:03:59;9.80;;;1.70;;
37311;SDS011;23197;53.912;9.138;2022-10-24T10:06:27;8.40;;;2.00;;
37311;SDS011;23197;53.912;9.138;2022-10-24T10:08:53;7.72;;;1.50;;
37311;SDS011;23197;53.912;9.138;2022-10-24T10:11:24;4.47;;;1.65;;
37311;SDS011;23197;53.912;9.138;2022-10-24T10:13:51;6.90;;;1.77;;
37311;SDS011;23197;53.912;9.138;2022-10-24T10:16:29;7.13;;;1.95;;
37311;SDS011;23197;53.912;9.138;2022-10-24T10:19:01;5.00;;;1.20;;
37311;SDS011;23197;53.912;9.138;2022-10-24T10:21:27;5.45;;;1.58;;
37311;SDS011;23197;53.912;9.138;2022-10-24T10:24:23;7.00;;;1.77;;
37311;SDS011;23197;53.912;9.138;2022-10-24T10:26:50;5.57;;;1.27;;
37311;SDS011;23197;53.912;9.138;2022-10-24T10:31:49;6.50;;;1.67;;
37311;SDS011;23197;53.912;9.138;2022-10-24T10:34:24;4.32;;;1.52;;
37311;SDS011;23197;53.912;9.138;2022-10-24T10:42:35;5.47;;;1.50;;
37311;SDS011;23197;53.912;9.138;2022-10-24T10:45:31;5.70;;;1.67;;
37311;SDS011;23197;53.912;9.138;2022-10-24T10:48:47;7.13;;;1.38;;
37311;SDS011;23197;53.912;9.138;2022-10-24T10:51:13;4.30;;;1.50;;
37311;SDS011;23197;53.912;9.138;2022-10-24T10:56:45;5.15;;;1.65;;
37311;SDS011;23197;53.912;9.138;2022-10-24T10:59:36;7.63;;;1.75;;
37311;SDS011;23197;53.912;9.138;2022-10-24T11:08:15;5.97;;;1.27;;
37311;SDS011;23197;53.912;9.138;2022-10-24T11:11:08;6.38;;;1.50;;
37311;SDS011;23197;53.912;9.138;2022-10-24T11:13:42;6.28;;;1.70;;
37311;SDS011;23197;53.912;9.138;2022-10-24T11:16:17;5.85;;;1.25;;
37311;SDS011;23197;53.912;9.138;2022-10-24T11:18:52;9.32;;;1.58;;
37311;SDS011;23197;53.912;9.138;2022-10-24T11:21:22;6.53;;;1.70;;
37311;SDS011;23197;53.912;9.138;2022-10-24T11:37:26;6.25;;;1.55;;
37311;SDS011;23197;53.912;9.138;2022-10-24T11:42:35;6.30;;;1.55;;
37311;SDS011;23197;53.912;9.138;2022-10-24T11:45:15;3.45;;;1.17;;
37311;SDS011;23197;53.912;9.138;2022-10-24T11:47:50;6.82;;;1.77;;
37311;SDS011;23197;53.912;9.138;2022-10-24T11:50:27;7.55;;;1.50;;
37311;SDS011;23197;53.912;9.138;2022-10-24T11:56:00;6.30;;;1.73;;
37311;SDS011;23197;53.912;9.138;2022-10-24T11:58:30;3.58;;;1.02;;
37311;SDS011;23197;53.912;9.138;2022-10-24T12:06:43;7.43;;;1.85;;
37311;SDS011;23197;53.912;9.138;2022-10-24T12:12:02;4.72;;;1.38;;
37311;SDS011;23197;53.912;9.138;2022-10-24T12:14:52;5.40;;;1.33;;
37311;SDS011;23197;53.912;9.138;2022-10-24T12:17:29;6.15;;;1.25;;
37311;SDS011;23197;53.912;9.138;2022-10-24T12:20:04;6.68;;;1.50;;
37311;SDS011;23197;53.912;9.138;2022-10-24T12:22:38;5.23;;;1.10;;
37311;SDS011;23197;53.912;9.138;2022-10-24T12:25:15;5.25;;;1.15;;
37311;SDS011;23197;53.912;9.138;2022-10-24T12:27:50;5.88;;;1.30;;
37311;SDS011;23197;53.912;9.138;2022-10-24T12:30:18;7.07;;;1.42;;
37311;SDS011;23197;53.912;9.138;2022-10-24T12:33:28;5.85;;;1.48;;
37311;SDS011;23197;53.912;9.138;2022-10-24T12:35:54;5.68;;;1.25;;
37311;SDS011;23197;53.912;9.138;2022-10-24T12:41:34;8.77;;;1.60;;
37311;SDS011;23197;53.912;9.138;2022-10-24T12:46:57;4.00;;;1.10;;
37311;SDS011;23197;53.912;9.138;2022-10-24T12:49:27;5.93;;;1.25;;
37311;SDS011;23197;53.912;9.138;2022-10-24T12:51:57;3.58;;;1.13;;
37311;SDS011;23197;53.912;9.138;2022-10-24T12:54:43;8.32;;;1.45;;
37311;SDS011;23197;53.912;9.138;2022-10-24T12:57:30;5.70;;;1.35;;
37311;SDS011;23197;53.912;9.138;2022-10-24T13:01:10;6.13;;;1.30;;
37311;SDS011;23197;53.912;9.138;2022-10-24T13:06:25;4.40;;;1.25;;
37311;SDS011;23197;53.912;9.138;2022-10-24T13:19:17;6.88;;;1.38;;
37311;SDS011;23197;53.912;9.138;2022-10-24T13:21:50;6.10;;;1.60;;
37311;SDS011;23197;53.912;9.138;2022-10-24T13:25:00;4.40;;;1.10;;
37311;SDS011;23197;53.912;9.138;2022-10-24T13:34:23;4.07;;;1.27;;
37311;SDS011;23197;53.912;9.138;2022-10-24T13:37:14;5.13;;;1.42;;
37311;SDS011;23197;53.912;9.138;2022-10-24T13:43:29;6.65;;;1.25;;
37311;SDS011;23197;53.912;9.138;2022-10-24T13:46:18;3.03;;;1.02;;
37311;SDS011;23197;53.912;9.138;2022-10-24T13:48:53;6.00;;;1.38;;
37311;SDS011;23197;53.912;9.138;2022-10-24T13:51:58;2.65;;;0.90;;
37311;SDS011;23197;53.912;9.138;2022-10-24T13:54:43;4.78;;;1.27;;
37311;SDS011;23197;53.912;9.138;2022-10-24T13:57:26;4.82;;;1.15;;
37311;SDS011;23197;53.912;9.138;2022-10-24T14:00:29;7.22;;;1.63;;
37311;SDS011;23197;53.912;9.138;2022-10-24T14:03:46;4.40;;;1.00;;
37311;SDS011;23197;53.912;9.138;2022-10-24T14:06:37;5.43;;;1.20;;
37311;SDS011;23197;53.912;9.138;2022-10-24T14:09:19;4.72;;;1.08;;
37311;SDS011;23197;53.912;9.138;2022-10-24T14:11:50;6.32;;;1.23;;
37311;SDS011;23197;53.912;9.138;2022-10-24T14:14:26;5.28;;;1.15;;
37311;SDS011;23197;53.912;9.138;2022-10-24T14:22:43;7.80;;;1.35;;
37311;SDS011;23197;53.912;9.138;2022-10-24T14:25:35;5.65;;;1.10;;
37311;SDS011;23197;53.912;9.138;2022-10-24T14:28:10;6.03;;;1.40;;
37311;SDS011;23197;53.912;9.138;2022-10-24T14:30:54;3.83;;;1.10;;
37311;SDS011;23197;53.912;9.138;2022-10-24T14:33:52;4.20;;;1.25;;
37311;SDS011;23197;53.912;9.138;2022-10-24T14:36:53;5.57;;;1.27;;
37311;SDS011;23197;53.912;9.138;2022-10-24T14:39:32;7.57;;;1.23;;
37311;SDS011;23197;53.912;9.138;2022-10-24T14:42:05;6.00;;;1.27;;
37311;SDS011;23197;53.912;9.138;2022-10-24T14:44:37;5.35;;;1.20;;
37311;SDS011;23197;53.912;9.138;2022-10-24T14:47:04;7.07;;;1.30;;
37311;SDS011;23197;53.912;9.138;2022-10-24T14:50:02;8.60;;;1.38;;
37311;SDS011;23197;53.912;9.138;2022-10-24T14:55:24;4.75;;;1.20;;
37311;SDS011;23197;53.912;9.138;2022-10-24T14:58:25;4.20;;;1.02;;
37311;SDS011;23197;53.912;9.138;2022-10-24T15:01:00;4.57;;;1.13;;
37311;SDS011;23197;53.912;9.138;2022-10-24T15:03:58;11.52;;;1.60;;
37311;SDS011;23197;53.912;9.138;2022-10-24T15:06:43;5.38;;;1.35;;
37311;SDS011;23197;53.912;9.138;2022-10-24T15:09:25;5.27;;;1.23;;
37311;SDS011;23197;53.912;9.138;2022-10-24T15:12:12;8.43;;;1.60;;
37311;SDS011;23197;53.912;9.138;2022-10-24T15:20:50;3.20;;;1.10;;
37311;SDS011;23197;53.912;9.138;2022-10-24T15:23:25;3.88;;;1.10;;
37311;SDS011;23197;53.912;9.138;2022-10-24T15:29:21;6.30;;;1.35;;
37311;SDS011;23197;53.912;9.138;2022-10-24T15:32:14;5.10;;;1.30;;
37311;SDS011;23197;53.912;9.138;2022-10-24T15:34:59;4.32;;;1.38;;
37311;SDS011;23197;53.912;9.138;2022-10-24T15:37:35;7.18;;;1.65;;
37311;SDS011;23197;53.912;9.138;2022-10-24T15:40:16;6.90;;;1.30;;
37311;SDS011;23197;53.912;9.138;2022-10-24T15:46:48;4.97;;;1.25;;
37311;SDS011;23197;53.912;9.138;2022-10-24T15:52:30;7.68;;;2.00;;
37311;SDS011;23197;53.912;9.138;2022-10-24T15:58:44;4.57;;;1.40;;
37311;SDS011;23197;53.912;9.138;2022-10-24T16:09:31;3.40;;;1.10;;
37311;SDS011;23197;53.912;9.138;2022-10-24T16:11:56;4.38;;;1.30;;
37311;SDS011;23197;53.912;9.138;2022-10-24T16:14:22;5.80;;;1.40;;
37311;SDS011;23197;53.912;9.138;2022-10-24T16:16:50;4.35;;;1.50;;
37311;SDS011;23197;53.912;9.138;2022-10-24T16:19:15;5.82;;;1.58;;
37311;SDS011;23197;53.912;9.138;2022-10-24T16:21:41;6.30;;;1.48;;
37311;SDS011;23197;53.912;9.138;2022-10-24T16:24:07;4.82;;;1.20;;
37311;SDS011;23197;53.912;9.138;2022-10-24T16:26:33;3.85;;;1.30;;
37311;SDS011;23197;53.912;9.138;2022-10-24T16:28:58;4.00;;;1.50;;
37311;SDS011;23197;53.912;9.138;2022-10-24T16:31:24;4.18;;;1.27;;
37311;SDS011;23197;53.912;9.138;2022-10-24T16:33:50;4.25;;;1.38;;
37311;SDS011;23197;53.912;9.138;2022-10-24T16:36:16;4.32;;;1.92;;
37311;SDS011;23197;53.912;9.138;2022-10-24T16:38:43;8.88;;;2.22;;
37311;SDS011;23197;53.912;9.138;2022-10-24T16:41:14;3.35;;;1.40;;
37311;SDS011;23197;53.912;9.138;2022-10-24T16:43:40;7.43;;;1.52;;
37311;SDS011;23197;53.912;9.138;2022-10-24T16:46:05;5.88;;;1.75;;
37311;SDS011;23197;53.912;9.138;2022-10-24T16:48:31;5.53;;;1.60;;
37311;SDS011;23197;53.912;9.138;2022-10-24T16:50:57;4.63;;;2.00;;
37311;SDS011;23197;53.912;9.138;2022-10-24T16:53:22;5.15;;;1.33;;
37311;SDS011;23197;53.912;9.138;2022-10-24T16:55:52;6.50;;;1.60;;
37311;SDS011;23197;53.912;9.138;2022-10-24T16:58:18;4.32;;;1.30;;
37311;SDS011;23197;53.912;9.138;2022-10-24T17:00:44;4.40;;;1.38;;
37311;SDS011;23197;53.912;9.138;2022-10-24T17:03:11;3.63;;;1.40;;
37311;SDS011;23197;53.912;9.138;2022-10-24T17:05:36;3.72;;;1.42;;
37311;SDS011;23197;53.912;9.138;2022-10-24T17:08:02;4.10;;;1.48;;
37311;SDS011;23197;53.912;9.138;2022-10-24T17:10:28;3.70;;;1.27;;
37311;SDS011;23197;53.912;9.138;2022-10-24T17:12:54;4.40;;;1.30;;
37311;SDS011;23197;53.912;9.138;2022-10-24T17:15:20;4.32;;;1.45;;
37311;SDS011;23197;53.912;9.138;2022-10-24T17:17:46;4.20;;;1.50;;
37311;SDS011;23197;53.912;9.138;2022-10-24T17:20:12;4.80;;;1.75;;
37311;SDS011;23197;53.912;9.138;2022-10-24T17:22:38;3.78;;;1.55;;
37311;SDS011;23197;53.912;9.138;2022-10-24T17:25:06;4.63;;;1.33;;
37311;SDS011;23197;53.912;9.138;2022-10-24T17:27:45;2.75;;;1.30;;
37311;SDS011;23197;53.912;9.138;2022-10-24T17:30:13;5.25;;;1.45;;
37311;SDS011;23197;53.912;9.138;2022-10-24T17:32:40;5.82;;;1.77;;
37311;SDS011;23197;53.912;9.138;2022-10-24T17:35:06;7.00;;;1.75;;
37311;SDS011;23197;53.912;9.138;2022-10-24T17:40:20;3.28;;;1.40;;
37311;SDS011;23197;53.912;9.138;2022-10-24T17:42:49;4.53;;;1.50;;